createdAt,value
2022-12-07T00:01:30.404Z,12.45
2022-12-07T00:04:04.882Z,13.27
2022-12-07T00:06:37.741Z,12.02
2022-12-07T00:09:06.069Z,12.15
2022-12-07T00:11:33.546Z,13.45
2022-12-07T00:14:04.173Z,12.40
2022-12-07T00:16:33.071Z,13.25
2022-12-07T00:19:00.174Z,12.07
2022-12-07T00:21:30.142Z,13.70
2022-12-07T00:23:58.278Z,12.15
2022-12-07T00:26:28.592Z,11.95
2022-12-07T00:28:58.238Z,12.50
2022-12-07T00:31:30.614Z,12.10
2022-12-07T00:33:59.519Z,13.25
2022-12-07T00:36:27.715Z,13.52
2022-12-07T00:38:56.060Z,12.63
2022-12-07T00:41:25.317Z,13.27
2022-12-07T00:43:52.838Z,13.40
2022-12-07T00:46:21.166Z,12.77
2022-12-07T00:48:49.268Z,12.63
2022-12-07T00:51:18.253Z,13.35
2022-12-07T00:53:46.166Z,13.80
2022-12-07T00:56:16.474Z,13.20
2022-12-07T00:58:43.863Z,13.07
2022-12-07T01:01:12.209Z,13.77
2022-12-07T01:03:39.424Z,12.75
2022-12-07T01:06:06.911Z,14.45
2022-12-07T01:08:34.103Z,14.90
2022-12-07T01:11:06.886Z,13.50
2022-12-07T01:13:35.661Z,13.68
2022-12-07T01:16:05.274Z,13.88
2022-12-07T01:18:35.000Z,14.15
2022-12-07T01:21:04.919Z,14.27
2022-12-07T01:23:32.900Z,14.77
2022-12-07T01:26:01.788Z,14.23
2022-12-07T01:28:29.308Z,16.02
2022-12-07T01:31:00.210Z,15.68
2022-12-07T01:33:33.431Z,14.93
2022-12-07T01:36:08.116Z,15.40
2022-12-07T01:38:35.328Z,15.10
2022-12-07T01:41:03.445Z,15.73
2022-12-07T01:43:32.969Z,15.52
2022-12-07T01:46:03.400Z,15.10
2022-12-07T01:48:35.298Z,15.40
2022-12-07T01:51:09.089Z,15.98
2022-12-07T01:53:39.447Z,15.93
2022-12-07T01:56:08.617Z,16.13
2022-12-07T01:58:35.795Z,16.50
2022-12-07T02:01:02.846Z,15.70
2022-12-07T02:03:45.188Z,17.27
2022-12-07T02:06:17.601Z,17.13
2022-12-07T02:08:44.860Z,16.60
2022-12-07T02:11:12.396Z,16.95
2022-12-07T02:13:42.039Z,16.73
2022-12-07T02:16:27.702Z,16.17
2022-12-07T02:19:30.083Z,16.80
2022-12-07T02:22:09.188Z,17.15
2022-12-07T02:25:04.688Z,16.38
2022-12-07T02:27:40.024Z,16.02
2022-12-07T02:30:13.770Z,15.77
2022-12-07T02:33:08.608Z,15.85
2022-12-07T02:35:56.384Z,14.07
2022-12-07T02:38:48.457Z,13.48
2022-12-07T02:41:25.722Z,13.60
2022-12-07T02:44:07.368Z,13.73
2022-12-07T02:46:41.793Z,13.57
2022-12-07T02:49:10.334Z,13.45
2022-12-07T02:51:41.950Z,11.55
2022-12-07T02:54:18.524Z,11.82
2022-12-07T02:56:45.485Z,11.75
2022-12-07T02:59:33.769Z,10.15
2022-12-07T03:02:36.453Z,10.63
2022-12-07T03:05:13.353Z,8.80
2022-12-07T03:08:18.249Z,9.45
2022-12-07T03:10:57.472Z,9.05
2022-12-07T03:13:38.946Z,7.65
2022-12-07T03:16:27.876Z,7.53
2022-12-07T03:19:10.594Z,7.38
2022-12-07T03:22:04.876Z,7.60
2022-12-07T03:24:38.112Z,8.07
2022-12-07T03:29:50.509Z,8.50
2022-12-07T03:32:39.717Z,9.70
2022-12-07T03:35:13.159Z,9.43
2022-12-07T03:37:55.089Z,9.63
2022-12-07T03:40:31.126Z,9.77
2022-12-07T03:43:00.928Z,9.50
2022-12-07T03:45:43.128Z,8.75
2022-12-07T03:48:30.444Z,7.60
2022-12-07T03:51:14.556Z,7.00
2022-12-07T03:53:49.695Z,8.45
2022-12-07T03:56:17.238Z,8.45
2022-12-07T03:58:44.904Z,8.48
2022-12-07T04:01:12.429Z,7.82
2022-12-07T04:03:39.551Z,7.30
2022-12-07T04:06:06.994Z,8.93
2022-12-07T04:08:33.997Z,8.35
2022-12-07T04:11:00.899Z,7.05
2022-12-07T04:13:28.334Z,6.57
2022-12-07T04:15:55.483Z,7.07
2022-12-07T04:18:22.559Z,6.28
2022-12-07T04:20:49.657Z,5.88
2022-12-07T04:23:17.089Z,6.10
2022-12-07T04:25:43.966Z,6.18
2022-12-07T04:28:11.218Z,5.40
2022-12-07T04:30:38.135Z,6.07
2022-12-07T04:33:05.153Z,5.90
2022-12-07T04:35:32.147Z,5.72
2022-12-07T04:37:59.310Z,6.10
2022-12-07T04:40:26.434Z,6.93
2022-12-07T04:42:53.471Z,7.25
2022-12-07T04:45:20.391Z,6.93
2022-12-07T04:47:47.328Z,6.68
2022-12-07T04:50:14.243Z,6.70
2022-12-07T04:52:41.278Z,6.53
2022-12-07T04:55:11.887Z,7.13
2022-12-07T04:57:39.080Z,6.70
2022-12-07T05:00:06.875Z,6.57
2022-12-07T05:02:33.892Z,7.00
2022-12-07T05:05:00.852Z,5.82
2022-12-07T05:07:27.983Z,5.55
2022-12-07T05:09:55.022Z,5.30
2022-12-07T05:12:22.009Z,4.20
2022-12-07T05:14:48.944Z,4.50
2022-12-07T05:17:17.725Z,4.32
2022-12-07T05:19:44.967Z,4.35
2022-12-07T05:22:12.226Z,3.65
2022-12-07T05:24:39.181Z,3.92
2022-12-07T05:27:06.398Z,11.40
2022-12-07T05:29:33.432Z,15.63
2022-12-07T05:32:00.649Z,17.48
2022-12-07T05:34:27.700Z,30.40
2022-12-07T05:36:54.757Z,22.70
2022-12-07T05:39:21.838Z,18.90
2022-12-07T05:42:07.314Z,7.20
2022-12-07T05:44:34.287Z,5.25
2022-12-07T05:47:01.321Z,5.18
2022-12-07T05:49:28.296Z,5.50
2022-12-07T05:51:55.735Z,4.70
2022-12-07T05:54:23.124Z,5.38
2022-12-07T05:56:50.386Z,5.28
2022-12-07T05:59:23.536Z,5.68
2022-12-07T06:02:00.813Z,5.15
2022-12-07T06:04:32.305Z,5.28
2022-12-07T06:06:59.694Z,6.88
2022-12-07T06:09:28.881Z,5.30
2022-12-07T06:12:15.280Z,3.65
2022-12-07T06:14:42.155Z,4.72
2022-12-07T06:17:09.687Z,4.80
2022-12-07T06:19:36.674Z,3.47
2022-12-07T06:22:05.592Z,3.80
2022-12-07T06:24:33.669Z,3.63
2022-12-07T06:27:00.740Z,3.40
2022-12-07T06:29:27.732Z,4.25
2022-12-07T06:31:54.820Z,3.80
2022-12-07T06:34:26.252Z,3.83
2022-12-07T06:36:55.986Z,3.05
2022-12-07T06:39:26.277Z,3.65
2022-12-07T06:41:53.364Z,3.22
2022-12-07T06:44:26.427Z,3.63
2022-12-07T06:47:31.748Z,3.80
2022-12-07T06:50:17.590Z,3.10
2022-12-07T06:53:02.966Z,3.30
2022-12-07T06:55:56.135Z,6.93
2022-12-07T07:01:54.524Z,3.53
2022-12-07T07:04:50.648Z,2.85
2022-12-07T07:07:24.553Z,3.05
2022-12-07T07:09:58.655Z,3.10
2022-12-07T07:12:34.013Z,4.65
2022-12-07T07:15:16.295Z,4.53
2022-12-07T07:17:45.127Z,7.55
2022-12-07T07:20:29.299Z,8.75
2022-12-07T07:26:18.686Z,6.05
2022-12-07T07:28:53.302Z,7.07
2022-12-07T07:31:24.809Z,6.55
2022-12-07T07:34:01.323Z,5.65
2022-12-07T07:36:35.346Z,5.68
2022-12-07T07:39:17.926Z,6.28
2022-12-07T07:44:52.068Z,7.28
2022-12-07T07:47:25.165Z,8.00
2022-12-07T07:50:19.952Z,8.07
2022-12-07T07:58:37.202Z,11.38
2022-12-07T08:01:08.576Z,11.40
2022-12-07T08:03:36.358Z,12.75
2022-12-07T08:06:06.844Z,14.05
2022-12-07T08:08:33.842Z,12.65
2022-12-07T08:11:02.485Z,12.18
2022-12-07T08:13:31.404Z,13.93
2022-12-07T08:15:59.385Z,17.02
2022-12-07T08:18:26.421Z,14.88
2022-12-07T08:20:53.318Z,17.08
2022-12-07T08:23:22.247Z,18.60
2022-12-07T08:25:52.939Z,20.63
2022-12-07T08:28:19.994Z,19.30
2022-12-07T08:30:47.257Z,21.42
2022-12-07T08:33:14.318Z,23.10
2022-12-07T08:35:41.281Z,22.42
2022-12-07T08:38:08.481Z,24.27
2022-12-07T08:40:36.362Z,23.60
2022-12-07T08:43:03.626Z,26.02
2022-12-07T08:45:33.356Z,21.48
2022-12-07T08:48:08.415Z,21.98
2022-12-07T08:50:37.437Z,21.60
2022-12-07T08:53:06.028Z,20.83
2022-12-07T08:55:34.263Z,21.35
2022-12-07T08:58:05.295Z,22.23
2022-12-07T09:00:32.455Z,21.15
2022-12-07T09:02:59.714Z,17.98
2022-12-07T09:05:27.081Z,13.05
2022-12-07T09:07:58.957Z,12.57
2022-12-07T09:10:54.954Z,12.40
2022-12-07T09:13:21.827Z,12.80
2022-12-07T09:15:48.772Z,11.23
2022-12-07T09:18:15.659Z,10.45
2022-12-07T09:20:42.570Z,10.00
2022-12-07T09:23:09.557Z,10.77
2022-12-07T09:25:36.785Z,9.80
2022-12-07T09:28:03.814Z,10.38
2022-12-07T09:30:30.997Z,10.60
2022-12-07T09:32:58.521Z,11.88
2022-12-07T09:35:27.245Z,54.13
2022-12-07T09:37:55.015Z,42.75
2022-12-07T09:40:24.379Z,35.85
2022-12-07T09:42:55.107Z,22.33
2022-12-07T09:45:32.087Z,16.77
2022-12-07T09:48:00.080Z,14.60
2022-12-07T09:50:29.324Z,11.05
2022-12-07T09:53:11.007Z,12.02
2022-12-07T09:55:39.249Z,11.48
2022-12-07T09:58:06.142Z,18.30
2022-12-07T10:00:33.356Z,12.80
2022-12-07T10:03:04.132Z,15.65
2022-12-07T10:05:43.562Z,13.90
2022-12-07T10:08:13.548Z,13.48
2022-12-07T10:10:41.782Z,15.70
2022-12-07T10:13:19.726Z,17.02
2022-12-07T10:16:06.359Z,28.35
2022-12-07T10:18:42.754Z,28.15
2022-12-07T10:21:12.666Z,10.80
2022-12-07T10:24:01.477Z,10.27
2022-12-07T10:26:35.296Z,9.80
2022-12-07T10:29:21.865Z,8.60
2022-12-07T10:31:58.797Z,9.85
2022-12-07T10:34:27.505Z,8.95
2022-12-07T10:37:07.607Z,9.07
2022-12-07T10:39:42.194Z,9.40
2022-12-07T10:42:23.832Z,8.43
2022-12-07T10:45:11.264Z,8.95
2022-12-07T10:47:46.733Z,8.20
2022-12-07T10:50:32.527Z,7.80
2022-12-07T10:53:27.060Z,7.07
2022-12-07T10:56:13.004Z,7.68
2022-12-07T10:59:01.259Z,4.93
2022-12-07T11:02:01.252Z,6.10
2022-12-07T11:04:40.336Z,7.28
2022-12-07T11:07:24.113Z,6.70
2022-12-07T11:10:40.975Z,7.63
2022-12-07T11:13:29.453Z,7.75
2022-12-07T11:16:11.915Z,7.38
2022-12-07T11:18:52.364Z,6.90
2022-12-07T11:21:36.804Z,6.18
2022-12-07T11:24:19.167Z,6.00
2022-12-07T11:26:52.289Z,5.17
2022-12-07T11:29:37.525Z,5.93
2022-12-07T11:32:26.376Z,3.67
2022-12-07T11:35:11.666Z,6.38
2022-12-07T11:40:31.987Z,4.53
2022-12-07T11:43:33.869Z,3.75
2022-12-07T11:46:16.780Z,4.82
2022-12-07T11:48:55.946Z,4.00
2022-12-07T11:51:29.035Z,4.55
2022-12-07T11:54:13.036Z,4.22
2022-12-07T11:56:40.053Z,5.10
2022-12-07T11:59:13.022Z,4.93
2022-12-07T12:04:27.215Z,4.97
2022-12-07T12:06:54.599Z,4.82
2022-12-07T12:09:41.989Z,5.00
2022-12-07T12:15:33.616Z,5.70
2022-12-07T12:18:59.395Z,5.20
2022-12-07T12:21:31.468Z,5.00
2022-12-07T12:24:07.477Z,5.27
2022-12-07T12:26:37.572Z,5.47
2022-12-07T12:29:06.261Z,4.65
2022-12-07T12:31:37.418Z,5.47
2022-12-07T12:34:26.007Z,4.40
2022-12-07T12:36:53.031Z,4.05
2022-12-07T12:39:21.892Z,3.53
2022-12-07T12:41:49.003Z,3.80
2022-12-07T12:44:15.871Z,3.88
2022-12-07T12:46:51.155Z,5.00
2022-12-07T12:49:21.061Z,4.90
2022-12-07T12:51:55.067Z,4.88
2022-12-07T12:54:27.115Z,4.68
2022-12-07T12:57:14.533Z,4.93
2022-12-07T12:59:53.698Z,4.80
2022-12-07T13:03:00.043Z,5.13
2022-12-07T13:05:32.317Z,6.53
2022-12-07T13:08:00.825Z,5.35
2022-12-07T13:10:30.541Z,5.30
2022-12-07T13:13:13.386Z,5.30
2022-12-07T13:15:51.727Z,4.82
2022-12-07T13:18:33.569Z,4.53
2022-12-07T13:21:00.472Z,3.97
2022-12-07T13:23:45.973Z,3.80
2022-12-07T13:26:22.065Z,3.38
2022-12-07T13:29:13.359Z,3.00
2022-12-07T13:31:59.061Z,2.67
2022-12-07T13:34:32.963Z,3.15
2022-12-07T13:37:03.241Z,4.63
2022-12-07T13:39:30.387Z,3.00
2022-12-07T13:42:01.005Z,3.22
2022-12-07T13:44:29.336Z,2.90
2022-12-07T13:46:59.392Z,2.50
2022-12-07T13:49:32.197Z,2.70
2022-12-07T13:52:23.051Z,2.35
2022-12-07T13:55:09.999Z,6.57
2022-12-07T13:57:37.535Z,5.53
2022-12-07T14:00:14.548Z,2.78
2022-12-07T14:03:01.970Z,6.22
2022-12-07T14:05:33.865Z,3.22
2022-12-07T14:08:02.213Z,2.90
2022-12-07T14:10:55.176Z,2.65
2022-12-07T14:13:39.194Z,2.92
2022-12-07T14:16:26.991Z,2.83
2022-12-07T14:18:54.986Z,4.32
2022-12-07T14:21:28.117Z,3.75
2022-12-07T14:26:31.915Z,3.58
2022-12-07T14:29:21.780Z,3.63
2022-12-07T14:31:48.992Z,4.28
2022-12-07T14:34:16.006Z,4.18
2022-12-07T14:36:43.081Z,4.00
2022-12-07T14:39:13.214Z,4.60
2022-12-07T14:41:53.171Z,5.70
2022-12-07T14:44:35.681Z,4.38
2022-12-07T14:49:50.091Z,3.92
2022-12-07T14:55:23.831Z,4.57
2022-12-07T14:57:50.792Z,7.45
2022-12-07T15:00:18.684Z,8.73
2022-12-07T15:02:47.425Z,16.60
2022-12-07T15:05:20.457Z,10.82
2022-12-07T15:07:58.039Z,10.55
2022-12-07T15:10:32.572Z,5.90
2022-12-07T15:13:22.602Z,9.38
2022-12-07T15:15:54.593Z,14.82
2022-12-07T15:18:23.893Z,9.50
2022-12-07T15:20:50.992Z,7.25
2022-12-07T15:23:18.038Z,23.27
2022-12-07T15:25:47.506Z,8.18
2022-12-07T15:28:15.580Z,9.65
2022-12-07T15:30:44.457Z,7.93
2022-12-07T15:33:13.019Z,8.68
2022-12-07T15:35:45.580Z,11.80
2022-12-07T15:38:13.013Z,10.10
2022-12-07T15:40:40.256Z,7.28
2022-12-07T15:43:29.258Z,10.65
2022-12-07T15:45:56.187Z,11.43
2022-12-07T15:48:28.290Z,9.48
2022-12-07T15:51:06.873Z,9.45
2022-12-07T15:53:34.431Z,9.18
2022-12-07T15:56:01.774Z,8.70
2022-12-07T15:58:28.759Z,8.05
2022-12-07T16:00:56.233Z,8.20
2022-12-07T16:03:29.271Z,9.30
2022-12-07T16:06:01.416Z,9.45
2022-12-07T16:08:33.431Z,10.40
2022-12-07T16:11:07.735Z,12.63
2022-12-07T16:13:35.656Z,10.50
2022-12-07T16:16:11.747Z,10.38
2022-12-07T16:18:38.926Z,10.50
2022-12-07T16:21:06.139Z,8.63
2022-12-07T16:23:33.351Z,6.40
2022-12-07T16:26:18.191Z,10.05
2022-12-07T16:28:45.816Z,11.20
2022-12-07T16:31:18.033Z,7.18
2022-12-07T16:33:45.553Z,8.18
2022-12-07T16:36:34.049Z,6.55
2022-12-07T16:39:04.770Z,5.70
2022-12-07T16:41:31.995Z,5.93
2022-12-07T16:44:04.623Z,6.68
2022-12-07T16:46:33.923Z,7.28
2022-12-07T16:49:01.484Z,9.98
2022-12-07T16:51:28.939Z,7.63
2022-12-07T16:53:56.271Z,10.75
2022-12-07T16:56:23.322Z,10.60
2022-12-07T16:58:51.020Z,9.27
2022-12-07T17:01:23.834Z,7.30
2022-12-07T17:06:21.149Z,12.75
2022-12-07T17:08:49.257Z,12.20
2022-12-07T17:11:22.550Z,16.17
2022-12-07T17:14:08.830Z,14.65
2022-12-07T17:16:36.255Z,12.50
2022-12-07T17:19:07.773Z,20.48
2022-12-07T17:21:35.325Z,20.42
2022-12-07T17:24:04.447Z,14.50
2022-12-07T17:26:35.354Z,6.93
2022-12-07T17:29:28.417Z,12.90
2022-12-07T17:32:00.594Z,8.65
2022-12-07T17:34:28.092Z,8.93
2022-12-07T17:36:56.129Z,6.50
2022-12-07T17:39:23.826Z,13.55
2022-12-07T17:42:09.514Z,13.23
2022-12-07T17:44:36.564Z,15.65
2022-12-07T17:47:04.239Z,19.67
2022-12-07T17:49:31.764Z,21.98
2022-12-07T17:52:19.067Z,16.25
2022-12-07T17:54:46.345Z,11.85
2022-12-07T17:57:13.470Z,11.40
2022-12-07T17:59:40.761Z,10.73
2022-12-07T18:02:09.036Z,9.13
2022-12-07T18:04:36.173Z,9.02
2022-12-07T18:07:06.812Z,10.07
2022-12-07T18:09:33.940Z,12.50
2022-12-07T18:12:01.496Z,11.98
2022-12-07T18:14:28.971Z,14.38
2022-12-07T18:18:03.678Z,8.52
2022-12-07T18:20:30.581Z,9.88
2022-12-07T18:22:58.013Z,8.15
2022-12-07T18:25:25.148Z,11.20
2022-12-07T18:27:59.402Z,25.73
2022-12-07T18:30:49.535Z,38.80
2022-12-07T18:33:13.221Z,15.50
2022-12-07T18:35:40.185Z,12.10
2022-12-07T18:38:07.220Z,26.40
2022-12-07T18:40:34.241Z,19.73
2022-12-07T18:43:01.211Z,23.90
2022-12-07T18:45:28.661Z,20.02
2022-12-07T18:47:55.758Z,16.83
2022-12-07T18:50:22.992Z,13.63
2022-12-07T18:52:50.104Z,14.00
2022-12-07T18:55:17.838Z,11.93
2022-12-07T18:57:46.235Z,15.88
2022-12-07T19:00:14.036Z,18.17
2022-12-07T19:02:42.152Z,16.13
2022-12-07T19:05:09.229Z,20.25
2022-12-07T19:07:36.622Z,16.70
2022-12-07T19:10:04.890Z,23.85
2022-12-07T19:12:32.063Z,24.80
2022-12-07T19:14:59.113Z,28.73
2022-12-07T19:17:26.128Z,16.25
2022-12-07T19:19:53.290Z,15.48
2022-12-07T19:22:22.038Z,18.50
2022-12-07T19:24:51.705Z,18.60
2022-12-07T19:27:19.897Z,20.25
2022-12-07T19:29:48.303Z,19.15
2022-12-07T19:32:16.118Z,20.10
2022-12-07T19:34:45.318Z,18.38
2022-12-07T19:37:13.750Z,18.23
2022-12-07T19:39:41.549Z,15.98
2022-12-07T19:42:08.990Z,17.85
2022-12-07T19:44:37.655Z,19.17
2022-12-07T19:47:05.680Z,19.20
2022-12-07T19:49:35.167Z,16.50
2022-12-07T19:52:06.447Z,15.93
2022-12-07T19:54:35.084Z,14.07
2022-12-07T19:57:03.544Z,11.02
2022-12-07T19:59:30.591Z,15.10
2022-12-07T20:01:58.396Z,7.47
2022-12-07T20:04:28.671Z,7.10
2022-12-07T20:06:58.826Z,6.03
2022-12-07T20:09:26.148Z,6.38
2022-12-07T20:12:11.629Z,7.10
2022-12-07T20:14:39.611Z,5.03
2022-12-07T20:17:06.808Z,5.43
2022-12-07T20:19:39.425Z,16.67
2022-12-07T20:22:06.940Z,21.55
2022-12-07T20:24:36.557Z,26.70
2022-12-07T20:27:05.199Z,25.08
2022-12-07T20:29:35.704Z,20.75
2022-12-07T20:32:03.218Z,20.45
2022-12-07T20:34:30.625Z,26.00
2022-12-07T20:36:57.708Z,24.48
2022-12-07T20:39:25.997Z,21.85
2022-12-07T20:42:11.365Z,17.27
2022-12-07T20:44:40.452Z,13.88
2022-12-07T20:47:07.631Z,14.75
2022-12-07T20:49:35.228Z,13.18
2022-12-07T20:52:02.547Z,13.50
2022-12-07T20:54:29.617Z,13.00
2022-12-07T20:56:57.968Z,13.60
2022-12-07T20:59:25.199Z,14.68
2022-12-07T21:01:53.456Z,12.50
2022-12-07T21:04:20.760Z,12.75
2022-12-07T21:07:13.473Z,11.80
2022-12-07T21:09:40.428Z,14.98
2022-12-07T21:12:11.267Z,11.88
2022-12-07T21:14:41.918Z,11.73
2022-12-07T21:17:09.730Z,13.73
2022-12-07T21:19:37.141Z,17.23
2022-12-07T21:22:05.154Z,21.30
2022-12-07T21:24:32.233Z,19.25
2022-12-07T21:27:00.244Z,25.88
2022-12-07T21:29:42.763Z,19.27
2022-12-07T21:32:11.770Z,12.65
2022-12-07T21:34:38.740Z,19.02
2022-12-07T21:37:05.828Z,15.45
2022-12-07T21:39:32.769Z,15.98
2022-12-07T21:41:59.721Z,14.00
2022-12-07T21:44:26.719Z,14.82
2022-12-07T21:46:54.139Z,14.60
2022-12-07T21:49:21.163Z,13.45
2022-12-07T21:51:48.134Z,14.02
2022-12-07T21:54:16.074Z,14.07
2022-12-07T21:56:45.283Z,13.02
2022-12-07T21:59:21.360Z,12.77
2022-12-07T22:01:49.056Z,16.23
2022-12-07T22:04:18.964Z,17.75
2022-12-07T22:06:46.274Z,14.75
2022-12-07T22:09:13.615Z,14.60
2022-12-07T22:11:40.634Z,14.32
2022-12-07T22:14:29.157Z,13.07
2022-12-07T22:16:57.841Z,10.63
2022-12-07T22:19:24.803Z,8.85
2022-12-07T22:21:51.781Z,11.45
2022-12-07T22:24:18.790Z,12.02
2022-12-07T22:26:45.778Z,12.30
2022-12-07T22:29:13.126Z,12.57
2022-12-07T22:31:41.372Z,12.50
2022-12-07T22:34:17.229Z,12.88
2022-12-07T22:36:45.336Z,15.30
2022-12-07T22:39:13.008Z,15.27
2022-12-07T22:41:40.328Z,15.75
2022-12-07T22:44:08.447Z,15.25
2022-12-07T22:46:36.216Z,13.63
2022-12-07T22:49:03.857Z,12.80
2022-12-07T22:51:33.933Z,11.80
2022-12-07T22:54:03.053Z,14.15
2022-12-07T22:56:34.087Z,11.75
2022-12-07T22:59:01.443Z,11.73
2022-12-07T23:01:28.908Z,14.07
2022-12-07T23:03:56.375Z,17.40
2022-12-07T23:06:32.036Z,12.15
2022-12-07T23:09:00.883Z,12.00
2022-12-07T23:11:48.566Z,12.15
2022-12-07T23:14:18.624Z,11.50
2022-12-07T23:16:46.206Z,12.07
2022-12-07T23:19:13.441Z,12.05
2022-12-07T23:21:41.031Z,11.23
2022-12-07T23:24:12.104Z,12.82
2022-12-07T23:26:39.756Z,13.88
2022-12-07T23:29:06.644Z,14.80
2022-12-07T23:31:33.673Z,14.98
2022-12-07T23:34:00.757Z,13.40
2022-12-07T23:36:29.008Z,13.75
2022-12-07T23:38:57.885Z,14.05
2022-12-07T23:41:27.311Z,13.02
2022-12-07T23:43:55.831Z,14.43
2022-12-07T23:46:26.017Z,16.35
2022-12-07T23:48:54.863Z,13.20
2022-12-07T23:51:22.438Z,13.57
2022-12-07T23:53:50.956Z,12.60
2022-12-07T23:56:23.974Z,13.25
